sensor_id;sensor_type;location;lat;lon;timestamp;pressure;altitude;pressure_sealevel;temperature;humidity
56414;BME280;42318;48.452;19.526;2022-12-18T00:00:05;99440.63;;;19.57;52.86
56414;BME280;42318;48.452;19.526;2022-12-18T00:07:36;99455.28;;;19.56;52.79
56414;BME280;42318;48.452;19.526;2022-12-18T00:15:08;99470.75;;;19.56;52.70
56414;BME280;42318;48.452;19.526;2022-12-18T00:22:38;99490.84;;;19.55;52.82
56414;BME280;42318;48.452;19.526;2022-12-18T00:30:10;99507.97;;;19.55;52.80
56414;BME280;42318;48.452;19.526;2022-12-18T00:37:41;99514.47;;;19.54;52.78
56414;BME280;42318;48.452;19.526;2022-12-18T00:45:12;99517.63;;;19.51;52.63
56414;BME280;42318;48.452;19.526;2022-12-18T00:52:43;99522.66;;;19.48;52.53
56414;BME280;42318;48.452;19.526;2022-12-18T01:00:14;99535.63;;;19.45;52.73
56414;BME280;42318;48.452;19.526;2022-12-18T01:07:46;99540.25;;;19.45;52.89
56414;BME280;42318;48.452;19.526;2022-12-18T01:15:17;99550.06;;;19.46;52.60
56414;BME280;42318;48.452;19.526;2022-12-18T01:22:48;99545.69;;;19.45;52.55
56414;BME280;42318;48.452;19.526;2022-12-18T01:30:19;99549.69;;;19.42;52.52
56414;BME280;42318;48.452;19.526;2022-12-18T01:37:54;99566.38;;;19.46;52.55
56414;BME280;42318;48.452;19.526;2022-12-18T01:45:27;99569.91;;;19.46;52.31
56414;BME280;42318;48.452;19.526;2022-12-18T01:53:17;99579.13;;;19.45;52.74
56414;BME280;42318;48.452;19.526;2022-12-18T02:00:48;99579.13;;;19.45;52.51
56414;BME280;42318;48.452;19.526;2022-12-18T02:08:23;99588.09;;;19.46;52.09
56414;BME280;42318;48.452;19.526;2022-12-18T02:16:12;99594.38;;;19.46;52.15
56414;BME280;42318;48.452;19.526;2022-12-18T02:31:57;99618.00;;;19.46;52.17
56414;BME280;42318;48.452;19.526;2022-12-18T02:39:33;99624.50;;;19.45;52.26
56414;BME280;42318;48.452;19.526;2022-12-18T02:47:04;99635.38;;;19.45;52.09
56414;BME280;42318;48.452;19.526;2022-12-18T02:54:56;99647.31;;;19.44;51.95
56414;BME280;42318;48.452;19.526;2022-12-18T03:02:43;99648.97;;;19.45;52.12
56414;BME280;42318;48.452;19.526;2022-12-18T03:10:21;99655.44;;;19.44;52.10
56414;BME280;42318;48.452;19.526;2022-12-18T03:18:04;99663.59;;;19.44;52.06
56414;BME280;42318;48.452;19.526;2022-12-18T03:25:40;99657.78;;;19.40;51.81
56414;BME280;42318;48.452;19.526;2022-12-18T03:33:19;99681.81;;;19.43;51.91
56414;BME280;42318;48.452;19.526;2022-12-18T03:41:12;99689.56;;;19.40;51.85
56414;BME280;42318;48.452;19.526;2022-12-18T03:48:51;99686.84;;;19.40;51.88
56414;BME280;42318;48.452;19.526;2022-12-18T03:56:26;99700.81;;;19.43;52.07
56414;BME280;42318;48.452;19.526;2022-12-18T04:04:00;99719.47;;;19.40;51.79
56414;BME280;42318;48.452;19.526;2022-12-18T04:11:32;99721.34;;;19.39;51.91
56414;BME280;42318;48.452;19.526;2022-12-18T04:19:04;99741.22;;;19.40;52.19
56414;BME280;42318;48.452;19.526;2022-12-18T04:26:34;99742.28;;;19.39;51.74
56414;BME280;42318;48.452;19.526;2022-12-18T04:34:05;99745.81;;;19.39;52.06
56414;BME280;42318;48.452;19.526;2022-12-18T04:41:36;99753.38;;;19.37;51.74
56414;BME280;42318;48.452;19.526;2022-12-18T04:49:06;99763.19;;;19.38;51.67
56414;BME280;42318;48.452;19.526;2022-12-18T04:56:38;99778.66;;;19.38;51.90
56414;BME280;42318;48.452;19.526;2022-12-18T05:04:08;99774.28;;;19.37;51.84
56414;BME280;42318;48.452;19.526;2022-12-18T05:11:39;99791.63;;;19.36;51.83
56414;BME280;42318;48.452;19.526;2022-12-18T05:19:10;99795.41;;;19.35;51.77
56414;BME280;42318;48.452;19.526;2022-12-18T05:26:41;99804.59;;;19.34;51.92
56414;BME280;42318;48.452;19.526;2022-12-18T05:34:11;99820.91;;;19.34;51.46
56414;BME280;42318;48.452;19.526;2022-12-18T05:41:42;99827.19;;;19.34;51.79
56414;BME280;42318;48.452;19.526;2022-12-18T05:49:13;99836.38;;;19.33;51.52
56414;BME280;42318;48.452;19.526;2022-12-18T05:56:43;99842.66;;;19.34;51.79
56414;BME280;42318;48.452;19.526;2022-12-18T06:04:14;99846.22;;;19.34;51.76
56414;BME280;42318;48.452;19.526;2022-12-18T06:11:45;99862.72;;;19.33;51.66
56414;BME280;42318;48.452;19.526;2022-12-18T06:19:16;99874.44;;;19.33;51.70
56414;BME280;42318;48.452;19.526;2022-12-18T06:26:47;99875.50;;;19.32;51.68
56414;BME280;42318;48.452;19.526;2022-12-18T06:34:18;99880.31;;;19.30;51.62
56414;BME280;42318;48.452;19.526;2022-12-18T06:41:48;99896.84;;;19.29;51.40
56414;BME280;42318;48.452;19.526;2022-12-18T06:49:19;99909.16;;;19.31;51.33
56414;BME280;42318;48.452;19.526;2022-12-18T06:56:50;99925.47;;;19.31;51.40
56414;BME280;42318;48.452;19.526;2022-12-18T07:04:21;99931.72;;;19.32;51.17
56414;BME280;42318;48.452;19.526;2022-12-18T07:11:52;99943.00;;;19.35;51.11
56414;BME280;42318;48.452;19.526;2022-12-18T07:19:23;99954.00;;;19.47;50.77
56414;BME280;42318;48.452;19.526;2022-12-18T07:26:54;99973.66;;;19.94;49.81
56414;BME280;42318;48.452;19.526;2022-12-18T07:34:24;99983.41;;;20.33;48.65
56414;BME280;42318;48.452;19.526;2022-12-18T07:41:55;99990.47;;;20.47;48.26
56414;BME280;42318;48.452;19.526;2022-12-18T07:49:44;99999.03;;;20.51;48.10
56414;BME280;42318;48.452;19.526;2022-12-18T07:57:16;100012.41;;;20.21;48.78
56414;BME280;42318;48.452;19.526;2022-12-18T08:04:47;100020.72;;;20.01;49.07
56414;BME280;42318;48.452;19.526;2022-12-18T08:12:17;100029.13;;;19.93;49.44
56414;BME280;42318;48.452;19.526;2022-12-18T08:19:48;100041.69;;;19.87;49.40
56414;BME280;42318;48.452;19.526;2022-12-18T08:27:19;100048.41;;;19.85;49.86
56414;BME280;42318;48.452;19.526;2022-12-18T08:34:50;100063.06;;;19.84;49.83
56414;BME280;42318;48.452;19.526;2022-12-18T08:42:20;100057.19;;;19.87;50.11
56414;BME280;42318;48.452;19.526;2022-12-18T08:50:10;100059.03;;;19.99;50.04
56414;BME280;42318;48.452;19.526;2022-12-18T08:57:42;100059.25;;;20.29;49.38
56414;BME280;42318;48.452;19.526;2022-12-18T09:05:13;100064.56;;;20.56;49.12
56414;BME280;42318;48.452;19.526;2022-12-18T09:12:43;100069.38;;;20.79;48.98
56414;BME280;42318;48.452;19.526;2022-12-18T09:20:14;100074.72;;;20.92;49.00
56414;BME280;42318;48.452;19.526;2022-12-18T09:27:47;100072.22;;;20.90;49.05
56414;BME280;42318;48.452;19.526;2022-12-18T09:35:17;100088.63;;;20.84;49.09
56414;BME280;42318;48.452;19.526;2022-12-18T09:42:52;100083.22;;;20.77;49.13
56414;BME280;42318;48.452;19.526;2022-12-18T09:50:39;100084.56;;;20.68;49.41
56414;BME280;42318;48.452;19.526;2022-12-18T09:58:24;100101.41;;;20.58;49.88
56414;BME280;42318;48.452;19.526;2022-12-18T10:14:07;100087.22;;;20.50;50.31
56414;BME280;42318;48.452;19.526;2022-12-18T10:21:47;100080.72;;;20.51;49.97
56414;BME280;42318;48.452;19.526;2022-12-18T10:29:22;100086.94;;;20.58;50.51
56414;BME280;42318;48.452;19.526;2022-12-18T10:36:53;100085.44;;;20.62;50.11
56414;BME280;42318;48.452;19.526;2022-12-18T10:44:24;100098.63;;;20.65;50.43
56414;BME280;42318;48.452;19.526;2022-12-18T10:52:24;100090.84;;;20.68;50.02
56414;BME280;42318;48.452;19.526;2022-12-18T10:59:57;100088.91;;;20.76;50.06
56414;BME280;42318;48.452;19.526;2022-12-18T11:07:48;100078.38;;;20.79;50.07
56414;BME280;42318;48.452;19.526;2022-12-18T11:15:29;100078.38;;;20.79;49.98
56414;BME280;42318;48.452;19.526;2022-12-18T11:23:03;100075.28;;;20.76;50.06
56414;BME280;42318;48.452;19.526;2022-12-18T11:30:36;100076.78;;;20.72;50.23
56414;BME280;42318;48.452;19.526;2022-12-18T11:38:29;100072.44;;;20.64;50.04
56414;BME280;42318;48.452;19.526;2022-12-18T11:46:06;100069.09;;;20.62;50.54
56414;BME280;42318;48.452;19.526;2022-12-18T11:53:40;100065.59;;;20.55;50.75
56414;BME280;42318;48.452;19.526;2022-12-18T12:16:50;100086.03;;;20.32;51.38
56414;BME280;42318;48.452;19.526;2022-12-18T12:39:56;100081.50;;;20.20;51.51
56414;BME280;42318;48.452;19.526;2022-12-18T12:47:32;100096.78;;;20.21;51.86
56414;BME280;42318;48.452;19.526;2022-12-18T12:55:07;100099.91;;;20.24;52.20
56414;BME280;42318;48.452;19.526;2022-12-18T13:03:03;100114.56;;;20.23;52.65
56414;BME280;42318;48.452;19.526;2022-12-18T13:10:39;100117.28;;;20.23;53.10
56414;BME280;42318;48.452;19.526;2022-12-18T13:18:11;100129.84;;;20.24;53.64
56414;BME280;42318;48.452;19.526;2022-12-18T13:25:44;100134.41;;;20.30;54.66
56414;BME280;42318;48.452;19.526;2022-12-18T13:48:24;100159.97;;;20.29;55.35
56414;BME280;42318;48.452;19.526;2022-12-18T13:55:56;100159.13;;;20.29;55.61
56414;BME280;42318;48.452;19.526;2022-12-18T14:03:29;100161.44;;;20.25;55.72
56414;BME280;42318;48.452;19.526;2022-12-18T14:11:01;100175.50;;;20.22;55.55
56414;BME280;42318;48.452;19.526;2022-12-18T14:18:48;100164.22;;;20.19;55.01
56414;BME280;42318;48.452;19.526;2022-12-18T14:26:28;100174.69;;;20.15;54.93
56414;BME280;42318;48.452;19.526;2022-12-18T14:33:59;100172.81;;;20.16;55.16
56414;BME280;42318;48.452;19.526;2022-12-18T14:41:30;100175.53;;;20.16;54.63
56414;BME280;42318;48.452;19.526;2022-12-18T14:49:23;100188.53;;;20.14;54.99
56414;BME280;42318;48.452;19.526;2022-12-18T14:57:04;100202.56;;;20.11;55.07
56414;BME280;42318;48.452;19.526;2022-12-18T15:04:38;100211.78;;;20.10;54.99
56414;BME280;42318;48.452;19.526;2022-12-18T15:12:26;100213.66;;;20.09;54.91
56414;BME280;42318;48.452;19.526;2022-12-18T15:20:02;100220.16;;;20.08;54.66
56414;BME280;42318;48.452;19.526;2022-12-18T15:27:35;100227.69;;;20.06;54.70
56414;BME280;42318;48.452;19.526;2022-12-18T15:42:42;100239.44;;;20.00;53.86
56414;BME280;42318;48.452;19.526;2022-12-18T15:50:32;100255.34;;;19.96;53.93
56414;BME280;42318;48.452;19.526;2022-12-18T15:58:04;100260.13;;;19.94;53.64
56414;BME280;42318;48.452;19.526;2022-12-18T16:05:35;100267.88;;;19.91;53.67
56414;BME280;42318;48.452;19.526;2022-12-18T16:13:10;100293.84;;;19.87;53.64
56414;BME280;42318;48.452;19.526;2022-12-18T16:20:41;100303.28;;;19.84;53.66
56414;BME280;42318;48.452;19.526;2022-12-18T16:28:12;100312.69;;;19.82;53.61
56414;BME280;42318;48.452;19.526;2022-12-18T16:35:43;100311.84;;;19.81;53.57
56414;BME280;42318;48.452;19.526;2022-12-18T16:43:14;100331.09;;;19.80;53.65
56414;BME280;42318;48.452;19.526;2022-12-18T16:50:44;100328.81;;;19.76;53.23
56414;BME280;42318;48.452;19.526;2022-12-18T16:58:15;100330.69;;;19.76;53.35
56414;BME280;42318;48.452;19.526;2022-12-18T17:05:46;100334.47;;;19.75;53.15
56414;BME280;42318;48.452;19.526;2022-12-18T17:13:17;100336.56;;;19.73;53.17
56414;BME280;42318;48.452;19.526;2022-12-18T17:20:48;100318.97;;;19.69;52.85
56414;BME280;42318;48.452;19.526;2022-12-18T17:28:19;100318.97;;;19.69;52.74
56414;BME280;42318;48.452;19.526;2022-12-18T17:35:51;100319.81;;;19.69;53.12
56414;BME280;42318;48.452;19.526;2022-12-18T17:43:22;100318.97;;;19.69;53.17
56414;BME280;42318;48.452;19.526;2022-12-18T17:50:53;100317.94;;;19.70;53.63
56414;BME280;42318;48.452;19.526;2022-12-18T17:58:24;100322.53;;;19.69;53.26
56414;BME280;42318;48.452;19.526;2022-12-18T18:05:55;100322.97;;;19.66;53.31
56414;BME280;42318;48.452;19.526;2022-12-18T18:13:26;100327.34;;;19.67;53.16
56414;BME280;42318;48.452;19.526;2022-12-18T18:21:16;100330.28;;;19.66;53.09
56414;BME280;42318;48.452;19.526;2022-12-18T18:28:47;100326.72;;;19.65;52.95
56414;BME280;42318;48.452;19.526;2022-12-18T18:36:17;100333.22;;;19.64;52.82
56414;BME280;42318;48.452;19.526;2022-12-18T18:43:48;100344.91;;;19.65;52.92
56414;BME280;42318;48.452;19.526;2022-12-18T18:51:23;100360.41;;;19.64;52.54
56414;BME280;42318;48.452;19.526;2022-12-18T18:58:54;100372.31;;;19.63;52.64
56414;BME280;42318;48.452;19.526;2022-12-18T19:06:27;100370.66;;;19.62;52.44
56414;BME280;42318;48.452;19.526;2022-12-18T19:13:59;100372.53;;;19.62;52.60
56414;BME280;42318;48.452;19.526;2022-12-18T19:21:31;100382.56;;;19.61;52.26
56414;BME280;42318;48.452;19.526;2022-12-18T19:29:04;100392.81;;;19.59;52.28
56414;BME280;42318;48.452;19.526;2022-12-18T19:36:37;100409.13;;;19.59;52.55
56414;BME280;42318;48.452;19.526;2022-12-18T19:44:13;100409.34;;;19.58;52.53
56414;BME280;42318;48.452;19.526;2022-12-18T19:51:44;100425.22;;;19.54;52.27
56414;BME280;42318;48.452;19.526;2022-12-18T19:59:15;100440.72;;;19.54;52.11
56414;BME280;42318;48.452;19.526;2022-12-18T20:06:52;100443.03;;;19.57;52.20
56414;BME280;42318;48.452;19.526;2022-12-18T20:14:23;100446.78;;;19.56;51.69
56414;BME280;42318;48.452;19.526;2022-12-18T20:21:54;100449.28;;;19.57;51.80
56414;BME280;42318;48.452;19.526;2022-12-18T20:29:25;100439.88;;;19.53;52.06
56414;BME280;42318;48.452;19.526;2022-12-18T20:36:56;100443.22;;;19.55;51.95
56414;BME280;42318;48.452;19.526;2022-12-18T20:44:27;100464.13;;;19.55;51.69
56414;BME280;42318;48.452;19.526;2022-12-18T20:51:57;100462.47;;;19.54;51.53
56414;BME280;42318;48.452;19.526;2022-12-18T20:59:28;100478.78;;;19.54;51.93
56414;BME280;42318;48.452;19.526;2022-12-18T21:06:59;100475.22;;;19.53;51.79
56414;BME280;42318;48.452;19.526;2022-12-18T21:14:30;100463.69;;;19.51;51.81
56414;BME280;42318;48.452;19.526;2022-12-18T21:22:01;100461.34;;;19.48;51.53
56414;BME280;42318;48.452;19.526;2022-12-18T21:29:32;100447.53;;;19.50;51.62
56414;BME280;42318;48.452;19.526;2022-12-18T21:37:04;100451.31;;;19.49;51.71
56414;BME280;42318;48.452;19.526;2022-12-18T21:44:35;100448.59;;;19.49;51.49
56414;BME280;42318;48.452;19.526;2022-12-18T21:52:06;100446.69;;;19.49;51.95
56414;BME280;42318;48.452;19.526;2022-12-18T21:59:39;100456.75;;;19.49;51.61
56414;BME280;42318;48.452;19.526;2022-12-18T22:07:11;100444.19;;;19.48;51.60
56414;BME280;42318;48.452;19.526;2022-12-18T22:14:42;100450.47;;;19.48;51.70
56414;BME280;42318;48.452;19.526;2022-12-18T22:22:13;100445.44;;;19.45;51.76
56414;BME280;42318;48.452;19.526;2022-12-18T22:29:44;100448.16;;;19.45;51.49
56414;BME280;42318;48.452;19.526;2022-12-18T22:37:33;100462.78;;;19.44;51.39
56414;BME280;42318;48.452;19.526;2022-12-18T22:45:05;100456.53;;;19.43;51.57
56414;BME280;42318;48.452;19.526;2022-12-18T22:52:35;100454.63;;;19.44;51.13
56414;BME280;42318;48.452;19.526;2022-12-18T23:00:07;100464.88;;;19.42;51.33
56414;BME280;42318;48.452;19.526;2022-12-18T23:07:38;100467.41;;;19.43;51.23
56414;BME280;42318;48.452;19.526;2022-12-18T23:15:09;100464.69;;;19.43;51.07
56414;BME280;42318;48.452;19.526;2022-12-18T23:22:39;100468.22;;;19.44;51.30
56414;BME280;42318;48.452;19.526;2022-12-18T23:30:11;100478.28;;;19.43;51.04
56414;BME280;42318;48.452;19.526;2022-12-18T23:37:42;100479.09;;;19.44;51.34
56414;BME280;42318;48.452;19.526;2022-12-18T23:45:13;100482.88;;;19.43;50.98
56414;BME280;42318;48.452;19.526;2022-12-18T23:52:44;100475.13;;;19.40;51.17
